sensor_id;sensor_type;location;lat;lon;timestamp;temperature;humidity
12870;DHT22;6503;48.572;13.460;2022-10-28T00:00:14;10.50;99.90
12870;DHT22;6503;48.572;13.460;2022-10-28T00:02:42;10.50;99.90
12870;DHT22;6503;48.572;13.460;2022-10-28T00:05:09;10.50;99.90
12870;DHT22;6503;48.572;13.460;2022-10-28T00:07:36;10.40;99.90
12870;DHT22;6503;48.572;13.460;2022-10-28T00:10:06;10.40;99.90
12870;DHT22;6503;48.572;13.460;2022-10-28T00:12:34;10.40;99.90
12870;DHT22;6503;48.572;13.460;2022-10-28T00:15:01;10.40;99.90
12870;DHT22;6503;48.572;13.460;2022-10-28T00:17:28;10.40;99.90
12870;DHT22;6503;48.572;13.460;2022-10-28T00:19:55;10.40;99.90
12870;DHT22;6503;48.572;13.460;2022-10-28T00:22:22;10.40;99.90
12870;DHT22;6503;48.572;13.460;2022-10-28T00:24:49;10.40;99.90
12870;DHT22;6503;48.572;13.460;2022-10-28T00:27:18;10.30;99.90
12870;DHT22;6503;48.572;13.460;2022-10-28T00:29:45;9.90;99.90
12870;DHT22;6503;48.572;13.460;2022-10-28T00:32:12;9.90;99.90
12870;DHT22;6503;48.572;13.460;2022-10-28T00:34:39;9.70;99.90
12870;DHT22;6503;48.572;13.460;2022-10-28T00:37:06;9.60;99.90
12870;DHT22;6503;48.572;13.460;2022-10-28T00:39:33;9.60;99.90
12870;DHT22;6503;48.572;13.460;2022-10-28T00:42:02;9.40;99.90
12870;DHT22;6503;48.572;13.460;2022-10-28T00:45:04;9.50;99.90
12870;DHT22;6503;48.572;13.460;2022-10-28T00:47:40;9.60;99.90
12870;DHT22;6503;48.572;13.460;2022-10-28T00:50:37;9.70;99.90
12870;DHT22;6503;48.572;13.460;2022-10-28T00:53:08;9.90;99.90
12870;DHT22;6503;48.572;13.460;2022-10-28T00:55:39;9.90;99.90
12870;DHT22;6503;48.572;13.460;2022-10-28T00:58:08;9.90;99.90
12870;DHT22;6503;48.572;13.460;2022-10-28T01:00:37;10.00;99.90
12870;DHT22;6503;48.572;13.460;2022-10-28T01:03:12;10.10;99.90
12870;DHT22;6503;48.572;13.460;2022-10-28T01:05:41;10.00;99.90
12870;DHT22;6503;48.572;13.460;2022-10-28T01:08:09;10.00;99.90
12870;DHT22;6503;48.572;13.460;2022-10-28T01:13:43;10.10;99.90
12870;DHT22;6503;48.572;13.460;2022-10-28T01:16:25;10.00;99.90
12870;DHT22;6503;48.572;13.460;2022-10-28T01:19:06;10.00;99.90
12870;DHT22;6503;48.572;13.460;2022-10-28T01:22:00;10.10;99.90
12870;DHT22;6503;48.572;13.460;2022-10-28T01:24:55;10.10;99.90
12870;DHT22;6503;48.572;13.460;2022-10-28T01:27:49;10.00;99.90
12870;DHT22;6503;48.572;13.460;2022-10-28T01:30:22;10.00;99.90
12870;DHT22;6503;48.572;13.460;2022-10-28T01:32:58;10.00;99.90
12870;DHT22;6503;48.572;13.460;2022-10-28T01:35:32;10.10;99.90
12870;DHT22;6503;48.572;13.460;2022-10-28T01:38:16;10.10;99.90
12870;DHT22;6503;48.572;13.460;2022-10-28T01:40:50;10.00;99.90
12870;DHT22;6503;48.572;13.460;2022-10-28T01:43:22;10.00;99.90
12870;DHT22;6503;48.572;13.460;2022-10-28T01:45:55;10.10;99.90
12870;DHT22;6503;48.572;13.460;2022-10-28T01:48:31;10.20;99.90
12870;DHT22;6503;48.572;13.460;2022-10-28T01:51:02;10.20;99.90
12870;DHT22;6503;48.572;13.460;2022-10-28T01:53:34;10.20;99.90
12870;DHT22;6503;48.572;13.460;2022-10-28T01:56:05;10.10;99.90
12870;DHT22;6503;48.572;13.460;2022-10-28T01:58:35;10.20;99.90
12870;DHT22;6503;48.572;13.460;2022-10-28T02:01:06;10.20;99.90
12870;DHT22;6503;48.572;13.460;2022-10-28T02:03:35;10.10;99.90
12870;DHT22;6503;48.572;13.460;2022-10-28T02:06:03;10.00;99.90
12870;DHT22;6503;48.572;13.460;2022-10-28T02:08:48;10.00;99.90
12870;DHT22;6503;48.572;13.460;2022-10-28T02:11:29;10.00;99.90
12870;DHT22;6503;48.572;13.460;2022-10-28T02:14:10;10.10;99.90
12870;DHT22;6503;48.572;13.460;2022-10-28T02:16:47;10.10;99.90
12870;DHT22;6503;48.572;13.460;2022-10-28T02:19:25;10.10;99.90
12870;DHT22;6503;48.572;13.460;2022-10-28T02:22:07;10.00;99.90
12870;DHT22;6503;48.572;13.460;2022-10-28T02:24:42;10.00;99.90
12870;DHT22;6503;48.572;13.460;2022-10-28T02:27:17;10.00;99.90
12870;DHT22;6503;48.572;13.460;2022-10-28T02:29:52;10.00;99.90
12870;DHT22;6503;48.572;13.460;2022-10-28T02:32:23;9.80;99.90
12870;DHT22;6503;48.572;13.460;2022-10-28T02:34:57;9.70;99.90
12870;DHT22;6503;48.572;13.460;2022-10-28T02:37:28;9.70;99.90
12870;DHT22;6503;48.572;13.460;2022-10-28T02:40:00;9.70;99.90
12870;DHT22;6503;48.572;13.460;2022-10-28T02:42:30;9.70;99.90
12870;DHT22;6503;48.572;13.460;2022-10-28T02:45:02;9.70;99.90
12870;DHT22;6503;48.572;13.460;2022-10-28T02:47:34;9.70;99.90
12870;DHT22;6503;48.572;13.460;2022-10-28T02:50:06;9.60;99.90
12870;DHT22;6503;48.572;13.460;2022-10-28T02:52:35;9.70;99.90
12870;DHT22;6503;48.572;13.460;2022-10-28T02:55:04;9.70;99.90
12870;DHT22;6503;48.572;13.460;2022-10-28T02:57:33;9.70;99.90
12870;DHT22;6503;48.572;13.460;2022-10-28T03:00:06;9.70;99.90
12870;DHT22;6503;48.572;13.460;2022-10-28T03:02:33;9.70;99.90
12870;DHT22;6503;48.572;13.460;2022-10-28T03:05:01;9.70;99.90
12870;DHT22;6503;48.572;13.460;2022-10-28T03:07:29;9.70;99.90
12870;DHT22;6503;48.572;13.460;2022-10-28T03:09:56;9.70;99.90
12870;DHT22;6503;48.572;13.460;2022-10-28T03:12:23;9.70;99.90
12870;DHT22;6503;48.572;13.460;2022-10-28T03:14:50;9.80;99.90
12870;DHT22;6503;48.572;13.460;2022-10-28T03:17:17;9.70;99.90
12870;DHT22;6503;48.572;13.460;2022-10-28T03:19:44;9.70;99.90
12870;DHT22;6503;48.572;13.460;2022-10-28T03:22:11;9.70;99.90
12870;DHT22;6503;48.572;13.460;2022-10-28T03:24:40;9.80;99.90
12870;DHT22;6503;48.572;13.460;2022-10-28T03:27:06;9.80;99.90
12870;DHT22;6503;48.572;13.460;2022-10-28T03:29:33;9.70;99.90
12870;DHT22;6503;48.572;13.460;2022-10-28T03:32:00;9.70;99.90
12870;DHT22;6503;48.572;13.460;2022-10-28T03:34:27;9.80;99.90
12870;DHT22;6503;48.572;13.460;2022-10-28T03:36:54;9.80;99.90
12870;DHT22;6503;48.572;13.460;2022-10-28T03:39:22;9.80;99.90
12870;DHT22;6503;48.572;13.460;2022-10-28T03:41:51;9.80;99.90
12870;DHT22;6503;48.572;13.460;2022-10-28T03:44:18;9.80;99.90
12870;DHT22;6503;48.572;13.460;2022-10-28T03:46:45;9.80;99.90
12870;DHT22;6503;48.572;13.460;2022-10-28T03:49:12;9.80;99.90
12870;DHT22;6503;48.572;13.460;2022-10-28T03:51:39;9.80;99.90
12870;DHT22;6503;48.572;13.460;2022-10-28T03:54:06;9.80;99.90
12870;DHT22;6503;48.572;13.460;2022-10-28T03:56:33;9.70;99.90
12870;DHT22;6503;48.572;13.460;2022-10-28T03:59:02;9.60;99.90
12870;DHT22;6503;48.572;13.460;2022-10-28T04:01:29;9.50;99.90
12870;DHT22;6503;48.572;13.460;2022-10-28T04:03:57;9.60;99.90
12870;DHT22;6503;48.572;13.460;2022-10-28T04:06:25;9.60;99.90
12870;DHT22;6503;48.572;13.460;2022-10-28T04:08:51;9.70;99.90
12870;DHT22;6503;48.572;13.460;2022-10-28T04:11:19;9.60;99.90
12870;DHT22;6503;48.572;13.460;2022-10-28T04:13:45;9.60;99.90
12870;DHT22;6503;48.572;13.460;2022-10-28T04:16:14;9.60;99.90
12870;DHT22;6503;48.572;13.460;2022-10-28T04:18:41;9.60;99.90
12870;DHT22;6503;48.572;13.460;2022-10-28T04:21:08;9.50;99.90
12870;DHT22;6503;48.572;13.460;2022-10-28T04:23:36;9.50;99.90
12870;DHT22;6503;48.572;13.460;2022-10-28T04:26:04;9.50;99.90
12870;DHT22;6503;48.572;13.460;2022-10-28T04:28:31;9.60;99.90
12870;DHT22;6503;48.572;13.460;2022-10-28T04:30:58;9.60;99.90
12870;DHT22;6503;48.572;13.460;2022-10-28T04:33:28;9.60;99.90
12870;DHT22;6503;48.572;13.460;2022-10-28T04:35:55;9.60;99.90
12870;DHT22;6503;48.572;13.460;2022-10-28T04:38:22;9.60;99.90
12870;DHT22;6503;48.572;13.460;2022-10-28T04:40:49;9.60;99.90
12870;DHT22;6503;48.572;13.460;2022-10-28T04:43:17;9.60;99.90
12870;DHT22;6503;48.572;13.460;2022-10-28T04:45:46;9.60;99.90
12870;DHT22;6503;48.572;13.460;2022-10-28T04:48:14;9.50;99.90
12870;DHT22;6503;48.572;13.460;2022-10-28T04:50:42;9.60;99.90
12870;DHT22;6503;48.572;13.460;2022-10-28T04:53:09;9.60;99.90
12870;DHT22;6503;48.572;13.460;2022-10-28T04:55:37;9.70;99.90
12870;DHT22;6503;48.572;13.460;2022-10-28T04:58:04;9.70;99.90
12870;DHT22;6503;48.572;13.460;2022-10-28T05:00:31;9.70;99.90
12870;DHT22;6503;48.572;13.460;2022-10-28T05:03:00;9.70;99.90
12870;DHT22;6503;48.572;13.460;2022-10-28T05:05:28;9.70;99.90
12870;DHT22;6503;48.572;13.460;2022-10-28T05:07:56;9.70;99.90
12870;DHT22;6503;48.572;13.460;2022-10-28T05:10:24;9.80;99.90
12870;DHT22;6503;48.572;13.460;2022-10-28T05:12:54;9.70;99.90
12870;DHT22;6503;48.572;13.460;2022-10-28T05:15:21;9.70;99.90
12870;DHT22;6503;48.572;13.460;2022-10-28T05:17:49;9.70;99.90
12870;DHT22;6503;48.572;13.460;2022-10-28T05:20:18;9.70;99.90
12870;DHT22;6503;48.572;13.460;2022-10-28T05:22:47;9.70;99.90
12870;DHT22;6503;48.572;13.460;2022-10-28T05:25:17;9.70;99.90
12870;DHT22;6503;48.572;13.460;2022-10-28T05:27:47;9.70;99.90
12870;DHT22;6503;48.572;13.460;2022-10-28T05:30:16;9.60;99.90
12870;DHT22;6503;48.572;13.460;2022-10-28T05:32:45;9.60;99.90
12870;DHT22;6503;48.572;13.460;2022-10-28T05:35:12;9.70;99.90
12870;DHT22;6503;48.572;13.460;2022-10-28T05:37:43;9.70;99.90
12870;DHT22;6503;48.572;13.460;2022-10-28T05:40:12;9.80;99.90
12870;DHT22;6503;48.572;13.460;2022-10-28T05:42:44;9.80;99.90
12870;DHT22;6503;48.572;13.460;2022-10-28T05:45:16;9.70;99.90
12870;DHT22;6503;48.572;13.460;2022-10-28T05:47:44;9.70;99.90
12870;DHT22;6503;48.572;13.460;2022-10-28T05:50:12;9.70;99.90
12870;DHT22;6503;48.572;13.460;2022-10-28T05:52:50;9.70;99.90
12870;DHT22;6503;48.572;13.460;2022-10-28T05:55:21;9.60;99.90
12870;DHT22;6503;48.572;13.460;2022-10-28T05:58:07;9.70;99.90
12870;DHT22;6503;48.572;13.460;2022-10-28T06:00:43;9.70;99.90
12870;DHT22;6503;48.572;13.460;2022-10-28T06:03:12;9.70;99.90
12870;DHT22;6503;48.572;13.460;2022-10-28T06:05:43;9.50;99.90
12870;DHT22;6503;48.572;13.460;2022-10-28T06:08:11;9.50;99.90
12870;DHT22;6503;48.572;13.460;2022-10-28T06:10:40;9.50;99.90
12870;DHT22;6503;48.572;13.460;2022-10-28T06:13:11;9.60;99.90
12870;DHT22;6503;48.572;13.460;2022-10-28T06:15:40;9.70;99.90
12870;DHT22;6503;48.572;13.460;2022-10-28T06:18:19;9.70;99.90
12870;DHT22;6503;48.572;13.460;2022-10-28T06:20:51;9.70;99.90
12870;DHT22;6503;48.572;13.460;2022-10-28T06:23:24;9.60;99.90
12870;DHT22;6503;48.572;13.460;2022-10-28T06:26:03;9.70;99.90
12870;DHT22;6503;48.572;13.460;2022-10-28T06:29:08;9.70;99.90
12870;DHT22;6503;48.572;13.460;2022-10-28T06:31:38;9.70;99.90
12870;DHT22;6503;48.572;13.460;2022-10-28T06:34:07;9.70;99.90
12870;DHT22;6503;48.572;13.460;2022-10-28T06:36:35;9.80;99.90
12870;DHT22;6503;48.572;13.460;2022-10-28T06:39:04;9.80;99.90
12870;DHT22;6503;48.572;13.460;2022-10-28T06:41:31;9.70;99.90
12870;DHT22;6503;48.572;13.460;2022-10-28T06:43:59;9.80;99.90
12870;DHT22;6503;48.572;13.460;2022-10-28T06:46:28;9.80;99.90
12870;DHT22;6503;48.572;13.460;2022-10-28T06:49:04;9.80;99.90
12870;DHT22;6503;48.572;13.460;2022-10-28T06:51:33;9.80;99.90
12870;DHT22;6503;48.572;13.460;2022-10-28T06:54:13;9.80;99.90
12870;DHT22;6503;48.572;13.460;2022-10-28T06:56:47;9.80;99.90
12870;DHT22;6503;48.572;13.460;2022-10-28T06:59:17;9.80;99.90
12870;DHT22;6503;48.572;13.460;2022-10-28T07:01:56;9.80;99.90
12870;DHT22;6503;48.572;13.460;2022-10-28T07:04:41;9.90;99.90
12870;DHT22;6503;48.572;13.460;2022-10-28T07:07:15;10.00;99.90
12870;DHT22;6503;48.572;13.460;2022-10-28T07:09:42;10.00;99.90
12870;DHT22;6503;48.572;13.460;2022-10-28T07:12:21;10.00;99.90
12870;DHT22;6503;48.572;13.460;2022-10-28T07:14:57;10.10;99.90
12870;DHT22;6503;48.572;13.460;2022-10-28T07:20:29;10.20;99.90
12870;DHT22;6503;48.572;13.460;2022-10-28T07:23:03;10.20;99.90
12870;DHT22;6503;48.572;13.460;2022-10-28T07:25:34;10.30;99.90
12870;DHT22;6503;48.572;13.460;2022-10-28T07:28:02;10.30;99.90
12870;DHT22;6503;48.572;13.460;2022-10-28T07:30:31;10.40;99.90
12870;DHT22;6503;48.572;13.460;2022-10-28T07:33:00;10.50;99.90
12870;DHT22;6503;48.572;13.460;2022-10-28T07:35:42;10.40;99.90
12870;DHT22;6503;48.572;13.460;2022-10-28T07:38:21;10.50;99.90
12870;DHT22;6503;48.572;13.460;2022-10-28T07:41:11;10.50;99.90
12870;DHT22;6503;48.572;13.460;2022-10-28T07:43:41;10.70;99.90
12870;DHT22;6503;48.572;13.460;2022-10-28T07:46:10;10.70;99.90
12870;DHT22;6503;48.572;13.460;2022-10-28T07:48:46;10.70;99.90
12870;DHT22;6503;48.572;13.460;2022-10-28T07:51:17;10.80;99.90
12870;DHT22;6503;48.572;13.460;2022-10-28T07:53:45;10.80;99.90
12870;DHT22;6503;48.572;13.460;2022-10-28T07:56:12;10.80;99.90
12870;DHT22;6503;48.572;13.460;2022-10-28T07:58:40;10.90;99.90
12870;DHT22;6503;48.572;13.460;2022-10-28T08:01:09;10.80;99.90
12870;DHT22;6503;48.572;13.460;2022-10-28T08:03:37;11.00;99.90
12870;DHT22;6503;48.572;13.460;2022-10-28T08:06:06;11.00;99.90
12870;DHT22;6503;48.572;13.460;2022-10-28T08:08:36;11.10;99.90
12870;DHT22;6503;48.572;13.460;2022-10-28T08:11:33;11.10;99.90
12870;DHT22;6503;48.572;13.460;2022-10-28T08:14:18;11.00;99.90
12870;DHT22;6503;48.572;13.460;2022-10-28T08:17:00;11.00;99.90
12870;DHT22;6503;48.572;13.460;2022-10-28T08:19:35;11.00;99.90
12870;DHT22;6503;48.572;13.460;2022-10-28T08:22:06;11.10;99.90
12870;DHT22;6503;48.572;13.460;2022-10-28T08:24:37;11.00;99.90
12870;DHT22;6503;48.572;13.460;2022-10-28T08:27:22;11.00;99.90
12870;DHT22;6503;48.572;13.460;2022-10-28T08:29:57;11.00;99.90
12870;DHT22;6503;48.572;13.460;2022-10-28T08:32:28;11.10;99.90
12870;DHT22;6503;48.572;13.460;2022-10-28T08:35:07;11.20;99.90
12870;DHT22;6503;48.572;13.460;2022-10-28T08:37:49;11.20;99.90
12870;DHT22;6503;48.572;13.460;2022-10-28T08:40:27;11.20;99.90
12870;DHT22;6503;48.572;13.460;2022-10-28T08:43:04;11.30;99.90
12870;DHT22;6503;48.572;13.460;2022-10-28T08:45:43;11.20;99.90
12870;DHT22;6503;48.572;13.460;2022-10-28T08:48:20;11.30;99.90
12870;DHT22;6503;48.572;13.460;2022-10-28T08:50:54;11.40;99.90
12870;DHT22;6503;48.572;13.460;2022-10-28T08:53:25;11.50;99.90
12870;DHT22;6503;48.572;13.460;2022-10-28T08:56:04;11.60;99.90
12870;DHT22;6503;48.572;13.460;2022-10-28T08:58:50;11.60;99.90
12870;DHT22;6503;48.572;13.460;2022-10-28T09:01:31;11.60;99.90
12870;DHT22;6503;48.572;13.460;2022-10-28T09:04:07;11.70;99.90
12870;DHT22;6503;48.572;13.460;2022-10-28T09:06:37;11.90;99.90
12870;DHT22;6503;48.572;13.460;2022-10-28T09:09:04;11.80;99.90
12870;DHT22;6503;48.572;13.460;2022-10-28T09:14:41;11.90;99.90
12870;DHT22;6503;48.572;13.460;2022-10-28T09:17:17;11.80;99.90
12870;DHT22;6503;48.572;13.460;2022-10-28T09:19:49;12.00;99.90
12870;DHT22;6503;48.572;13.460;2022-10-28T09:22:31;12.10;99.90
12870;DHT22;6503;48.572;13.460;2022-10-28T09:25:24;12.30;99.90
12870;DHT22;6503;48.572;13.460;2022-10-28T09:28:14;12.40;99.90
12870;DHT22;6503;48.572;13.460;2022-10-28T09:30:58;12.60;99.90
12870;DHT22;6503;48.572;13.460;2022-10-28T09:33:50;12.70;99.90
12870;DHT22;6503;48.572;13.460;2022-10-28T09:36:27;12.80;99.90
12870;DHT22;6503;48.572;13.460;2022-10-28T09:38:57;12.90;99.90
12870;DHT22;6503;48.572;13.460;2022-10-28T09:41:36;13.00;99.90
12870;DHT22;6503;48.572;13.460;2022-10-28T09:44:25;13.20;99.90
12870;DHT22;6503;48.572;13.460;2022-10-28T09:47:02;13.30;99.90
12870;DHT22;6503;48.572;13.460;2022-10-28T09:49:35;13.40;99.90
12870;DHT22;6503;48.572;13.460;2022-10-28T09:52:08;13.70;99.90
12870;DHT22;6503;48.572;13.460;2022-10-28T09:54:39;13.80;99.90
12870;DHT22;6503;48.572;13.460;2022-10-28T09:57:07;14.00;99.90
12870;DHT22;6503;48.572;13.460;2022-10-28T09:59:36;14.20;99.90
12870;DHT22;6503;48.572;13.460;2022-10-28T10:02:27;14.30;99.90
12870;DHT22;6503;48.572;13.460;2022-10-28T10:05:01;14.40;99.90
12870;DHT22;6503;48.572;13.460;2022-10-28T10:07:32;14.40;99.90
12870;DHT22;6503;48.572;13.460;2022-10-28T10:10:04;14.60;99.90
12870;DHT22;6503;48.572;13.460;2022-10-28T10:12:33;14.80;99.90
12870;DHT22;6503;48.572;13.460;2022-10-28T10:15:10;14.90;99.90
12870;DHT22;6503;48.572;13.460;2022-10-28T10:17:45;15.00;99.90
12870;DHT22;6503;48.572;13.460;2022-10-28T10:20:29;15.20;99.90
12870;DHT22;6503;48.572;13.460;2022-10-28T10:23:33;15.50;99.90
12870;DHT22;6503;48.572;13.460;2022-10-28T10:26:35;15.70;99.90
12870;DHT22;6503;48.572;13.460;2022-10-28T10:29:02;15.90;99.90
12870;DHT22;6503;48.572;13.460;2022-10-28T10:32:23;16.00;99.90
12870;DHT22;6503;48.572;13.460;2022-10-28T10:34:52;16.00;99.90
12870;DHT22;6503;48.572;13.460;2022-10-28T10:37:23;16.10;99.90
12870;DHT22;6503;48.572;13.460;2022-10-28T10:40:06;16.30;99.90
12870;DHT22;6503;48.572;13.460;2022-10-28T10:42:41;16.40;99.90
12870;DHT22;6503;48.572;13.460;2022-10-28T10:45:24;16.50;99.90
12870;DHT22;6503;48.572;13.460;2022-10-28T10:48:11;16.60;99.90
12870;DHT22;6503;48.572;13.460;2022-10-28T10:50:44;16.70;99.90
12870;DHT22;6503;48.572;13.460;2022-10-28T10:53:19;16.80;99.90
12870;DHT22;6503;48.572;13.460;2022-10-28T10:56:42;17.00;99.90
12870;DHT22;6503;48.572;13.460;2022-10-28T10:59:30;17.40;99.90
12870;DHT22;6503;48.572;13.460;2022-10-28T11:01:58;17.50;99.90
12870;DHT22;6503;48.572;13.460;2022-10-28T11:04:46;17.60;99.90
12870;DHT22;6503;48.572;13.460;2022-10-28T11:07:35;17.60;99.90
12870;DHT22;6503;48.572;13.460;2022-10-28T11:10:21;17.80;99.90
12870;DHT22;6503;48.572;13.460;2022-10-28T11:13:02;18.00;99.90
12870;DHT22;6503;48.572;13.460;2022-10-28T11:15:58;18.20;99.90
12870;DHT22;6503;48.572;13.460;2022-10-28T11:18:25;18.30;99.90
12870;DHT22;6503;48.572;13.460;2022-10-28T11:20:59;18.40;99.90
12870;DHT22;6503;48.572;13.460;2022-10-28T11:24:01;18.50;99.90
12870;DHT22;6503;48.572;13.460;2022-10-28T11:26:36;18.70;99.90
12870;DHT22;6503;48.572;13.460;2022-10-28T11:29:08;18.80;99.90
12870;DHT22;6503;48.572;13.460;2022-10-28T11:34:58;19.20;99.90
12870;DHT22;6503;48.572;13.460;2022-10-28T11:37:40;19.30;99.90
12870;DHT22;6503;48.572;13.460;2022-10-28T11:40:23;19.50;99.90
12870;DHT22;6503;48.572;13.460;2022-10-28T11:43:13;19.60;99.90
12870;DHT22;6503;48.572;13.460;2022-10-28T11:45:55;19.70;99.90
12870;DHT22;6503;48.572;13.460;2022-10-28T11:48:40;19.80;99.90
12870;DHT22;6503;48.572;13.460;2022-10-28T11:51:19;19.90;99.90
12870;DHT22;6503;48.572;13.460;2022-10-28T11:57:08;19.50;99.90
12870;DHT22;6503;48.572;13.460;2022-10-28T12:00:03;19.40;99.90
12870;DHT22;6503;48.572;13.460;2022-10-28T12:02:45;19.40;99.90
12870;DHT22;6503;48.572;13.460;2022-10-28T12:05:22;19.40;99.90
12870;DHT22;6503;48.572;13.460;2022-10-28T12:08:11;19.50;99.90
12870;DHT22;6503;48.572;13.460;2022-10-28T12:10:56;19.70;99.90
12870;DHT22;6503;48.572;13.460;2022-10-28T12:13:39;20.00;99.90
12870;DHT22;6503;48.572;13.460;2022-10-28T12:16:16;20.20;99.90
12870;DHT22;6503;48.572;13.460;2022-10-28T12:18:51;20.50;99.90
12870;DHT22;6503;48.572;13.460;2022-10-28T12:21:26;20.60;99.90
12870;DHT22;6503;48.572;13.460;2022-10-28T12:23:59;20.80;99.90
12870;DHT22;6503;48.572;13.460;2022-10-28T12:26:36;20.80;99.90
12870;DHT22;6503;48.572;13.460;2022-10-28T12:29:14;20.50;99.90
12870;DHT22;6503;48.572;13.460;2022-10-28T12:31:48;20.40;99.90
12870;DHT22;6503;48.572;13.460;2022-10-28T12:34:26;20.20;99.90
12870;DHT22;6503;48.572;13.460;2022-10-28T12:37:01;20.10;99.90
12870;DHT22;6503;48.572;13.460;2022-10-28T12:39:32;20.10;99.90
12870;DHT22;6503;48.572;13.460;2022-10-28T12:42:08;20.00;99.90
12870;DHT22;6503;48.572;13.460;2022-10-28T12:44:38;19.90;99.90
12870;DHT22;6503;48.572;13.460;2022-10-28T12:47:17;19.80;99.90
12870;DHT22;6503;48.572;13.460;2022-10-28T12:50:00;19.70;99.90
12870;DHT22;6503;48.572;13.460;2022-10-28T12:52:52;19.60;99.90
12870;DHT22;6503;48.572;13.460;2022-10-28T12:55:26;19.60;99.90
12870;DHT22;6503;48.572;13.460;2022-10-28T12:58:01;19.80;99.90
12870;DHT22;6503;48.572;13.460;2022-10-28T13:00:31;19.80;99.90
12870;DHT22;6503;48.572;13.460;2022-10-28T13:03:02;20.00;99.90
12870;DHT22;6503;48.572;13.460;2022-10-28T13:05:35;20.10;99.90
12870;DHT22;6503;48.572;13.460;2022-10-28T13:08:39;20.20;99.90
12870;DHT22;6503;48.572;13.460;2022-10-28T13:14:39;20.30;99.90
12870;DHT22;6503;48.572;13.460;2022-10-28T13:17:32;20.30;99.90
12870;DHT22;6503;48.572;13.460;2022-10-28T13:20:26;20.10;99.90
12870;DHT22;6503;48.572;13.460;2022-10-28T13:23:15;19.80;99.90
12870;DHT22;6503;48.572;13.460;2022-10-28T13:25:50;19.70;99.90
12870;DHT22;6503;48.572;13.460;2022-10-28T13:28:20;19.70;99.90
12870;DHT22;6503;48.572;13.460;2022-10-28T13:30:54;19.60;99.90
12870;DHT22;6503;48.572;13.460;2022-10-28T13:33:23;19.50;99.90
12870;DHT22;6503;48.572;13.460;2022-10-28T13:35:51;19.50;99.90
12870;DHT22;6503;48.572;13.460;2022-10-28T13:38:22;19.50;99.90
12870;DHT22;6503;48.572;13.460;2022-10-28T13:41:09;19.50;99.90
12870;DHT22;6503;48.572;13.460;2022-10-28T13:44:12;19.50;99.90
12870;DHT22;6503;48.572;13.460;2022-10-28T13:47:21;19.40;99.90
12870;DHT22;6503;48.572;13.460;2022-10-28T13:50:08;19.20;99.90
12870;DHT22;6503;48.572;13.460;2022-10-28T13:52:36;19.20;99.90
12870;DHT22;6503;48.572;13.460;2022-10-28T13:55:23;19.20;99.90
12870;DHT22;6503;48.572;13.460;2022-10-28T13:57:58;19.30;99.90
12870;DHT22;6503;48.572;13.460;2022-10-28T14:00:36;19.20;99.90
12870;DHT22;6503;48.572;13.460;2022-10-28T14:03:05;19.30;99.90
12870;DHT22;6503;48.572;13.460;2022-10-28T14:05:51;19.20;99.90
12870;DHT22;6503;48.572;13.460;2022-10-28T14:08:21;19.20;99.90
12870;DHT22;6503;48.572;13.460;2022-10-28T14:11:02;19.10;99.90
12870;DHT22;6503;48.572;13.460;2022-10-28T14:13:31;19.10;99.90
12870;DHT22;6503;48.572;13.460;2022-10-28T14:16:28;19.10;99.90
12870;DHT22;6503;48.572;13.460;2022-10-28T14:19:01;19.10;99.90
12870;DHT22;6503;48.572;13.460;2022-10-28T14:24:30;19.10;99.90
12870;DHT22;6503;48.572;13.460;2022-10-28T14:30:21;19.00;99.90
12870;DHT22;6503;48.572;13.460;2022-10-28T14:33:01;19.00;99.90
12870;DHT22;6503;48.572;13.460;2022-10-28T14:35:36;19.00;99.90
12870;DHT22;6503;48.572;13.460;2022-10-28T14:38:29;18.90;99.90
12870;DHT22;6503;48.572;13.460;2022-10-28T14:41:22;18.90;99.90
12870;DHT22;6503;48.572;13.460;2022-10-28T14:43:59;18.80;99.90
12870;DHT22;6503;48.572;13.460;2022-10-28T14:46:45;18.70;99.90
12870;DHT22;6503;48.572;13.460;2022-10-28T14:49:19;18.60;99.90
12870;DHT22;6503;48.572;13.460;2022-10-28T14:51:49;18.60;99.90
12870;DHT22;6503;48.572;13.460;2022-10-28T14:54:21;18.50;99.90
12870;DHT22;6503;48.572;13.460;2022-10-28T14:56:55;18.50;99.90
12870;DHT22;6503;48.572;13.460;2022-10-28T14:59:28;18.50;99.90
12870;DHT22;6503;48.572;13.460;2022-10-28T15:02:00;18.50;99.90
12870;DHT22;6503;48.572;13.460;2022-10-28T15:04:42;18.40;99.90
12870;DHT22;6503;48.572;13.460;2022-10-28T15:07:16;18.40;99.90
12870;DHT22;6503;48.572;13.460;2022-10-28T15:09:50;18.30;99.90
12870;DHT22;6503;48.572;13.460;2022-10-28T15:12:22;18.30;99.90
12870;DHT22;6503;48.572;13.460;2022-10-28T15:14:52;18.20;99.90
12870;DHT22;6503;48.572;13.460;2022-10-28T15:17:27;18.20;99.90
12870;DHT22;6503;48.572;13.460;2022-10-28T15:19:55;18.20;99.90
12870;DHT22;6503;48.572;13.460;2022-10-28T15:22:25;18.20;99.90
12870;DHT22;6503;48.572;13.460;2022-10-28T15:24:58;18.30;99.90
12870;DHT22;6503;48.572;13.460;2022-10-28T15:27:29;18.20;99.90
12870;DHT22;6503;48.572;13.460;2022-10-28T15:30:06;18.20;99.90
12870;DHT22;6503;48.572;13.460;2022-10-28T15:32:38;18.10;99.90
12870;DHT22;6503;48.572;13.460;2022-10-28T15:35:36;17.90;99.90
12870;DHT22;6503;48.572;13.460;2022-10-28T15:38:37;17.80;99.90
12870;DHT22;6503;48.572;13.460;2022-10-28T15:44:34;17.50;99.90
12870;DHT22;6503;48.572;13.460;2022-10-28T15:47:27;17.40;99.90
12870;DHT22;6503;48.572;13.460;2022-10-28T15:49:59;17.20;99.90
12870;DHT22;6503;48.572;13.460;2022-10-28T15:52:34;17.20;99.90
12870;DHT22;6503;48.572;13.460;2022-10-28T15:55:26;17.10;99.90
12870;DHT22;6503;48.572;13.460;2022-10-28T15:58:30;17.10;99.90
12870;DHT22;6503;48.572;13.460;2022-10-28T16:01:00;16.80;99.90
12870;DHT22;6503;48.572;13.460;2022-10-28T16:03:54;16.70;99.90
12870;DHT22;6503;48.572;13.460;2022-10-28T16:06:36;16.70;99.90
12870;DHT22;6503;48.572;13.460;2022-10-28T16:09:11;16.60;99.90
12870;DHT22;6503;48.572;13.460;2022-10-28T16:11:44;16.40;99.90
12870;DHT22;6503;48.572;13.460;2022-10-28T16:14:28;16.30;99.90
12870;DHT22;6503;48.572;13.460;2022-10-28T16:17:10;16.20;99.90
12870;DHT22;6503;48.572;13.460;2022-10-28T16:19:42;16.10;99.90
12870;DHT22;6503;48.572;13.460;2022-10-28T16:22:12;16.00;99.90
12870;DHT22;6503;48.572;13.460;2022-10-28T16:24:40;16.10;99.90
12870;DHT22;6503;48.572;13.460;2022-10-28T16:27:15;16.00;99.90
12870;DHT22;6503;48.572;13.460;2022-10-28T16:29:49;15.90;99.90
12870;DHT22;6503;48.572;13.460;2022-10-28T16:32:25;15.80;99.90
12870;DHT22;6503;48.572;13.460;2022-10-28T16:34:55;15.70;99.90
12870;DHT22;6503;48.572;13.460;2022-10-28T16:37:25;15.60;99.90
12870;DHT22;6503;48.572;13.460;2022-10-28T16:39:53;15.50;99.90
12870;DHT22;6503;48.572;13.460;2022-10-28T16:42:24;15.40;99.90
12870;DHT22;6503;48.572;13.460;2022-10-28T16:44:52;15.30;99.90
12870;DHT22;6503;48.572;13.460;2022-10-28T16:47:21;15.40;99.90
12870;DHT22;6503;48.572;13.460;2022-10-28T16:49:51;15.30;99.90
12870;DHT22;6503;48.572;13.460;2022-10-28T16:52:28;15.30;99.90